sensor_id;sensor_type;location;lat;lon;timestamp;pressure;altitude;pressure_sealevel;temperature;humidity
51299;BME280;37382;45.192;9.790;2022-12-18T00:01:33;102448.63;;;4.38;100.00
51299;BME280;37382;45.192;9.790;2022-12-18T00:04:04;102443.75;;;4.43;100.00
51299;BME280;37382;45.192;9.790;2022-12-18T00:06:33;102436.88;;;4.39;100.00
51299;BME280;37382;45.192;9.790;2022-12-18T00:09:02;102433.56;;;4.36;100.00
51299;BME280;37382;45.192;9.790;2022-12-18T00:11:31;102436.13;;;4.37;100.00
51299;BME280;37382;45.192;9.790;2022-12-18T00:13:59;102448.34;;;4.54;100.00
51299;BME280;37382;45.192;9.790;2022-12-18T00:16:28;102454.19;;;4.48;100.00
51299;BME280;37382;45.192;9.790;2022-12-18T00:18:57;102448.72;;;4.61;100.00
51299;BME280;37382;45.192;9.790;2022-12-18T00:21:26;102454.59;;;4.90;100.00
51299;BME280;37382;45.192;9.790;2022-12-18T00:23:54;102457.69;;;4.61;100.00
51299;BME280;37382;45.192;9.790;2022-12-18T00:26:23;102462.13;;;4.74;100.00
51299;BME280;37382;45.192;9.790;2022-12-18T00:28:58;102457.19;;;4.92;100.00
51299;BME280;37382;45.192;9.790;2022-12-18T00:31:27;102462.34;;;4.95;100.00
51299;BME280;37382;45.192;9.790;2022-12-18T00:33:55;102458.94;;;5.15;100.00
51299;BME280;37382;45.192;9.790;2022-12-18T00:36:28;102474.94;;;4.94;100.00
51299;BME280;37382;45.192;9.790;2022-12-18T00:38:58;102469.72;;;5.04;100.00
51299;BME280;37382;45.192;9.790;2022-12-18T00:41:26;102471.03;;;4.98;100.00
51299;BME280;37382;45.192;9.790;2022-12-18T00:44:14;102478.34;;;4.85;100.00
51299;BME280;37382;45.192;9.790;2022-12-18T00:46:43;102481.16;;;4.84;100.00
51299;BME280;37382;45.192;9.790;2022-12-18T00:49:11;102479.44;;;4.82;100.00
51299;BME280;37382;45.192;9.790;2022-12-18T00:51:38;102482.59;;;4.76;100.00
51299;BME280;37382;45.192;9.790;2022-12-18T00:54:06;102486.16;;;4.77;100.00
51299;BME280;37382;45.192;9.790;2022-12-18T00:56:38;102488.34;;;4.72;100.00
51299;BME280;37382;45.192;9.790;2022-12-18T00:59:16;102498.41;;;4.81;100.00
51299;BME280;37382;45.192;9.790;2022-12-18T01:01:46;102503.59;;;5.20;100.00
51299;BME280;37382;45.192;9.790;2022-12-18T01:04:14;102513.91;;;5.26;100.00
51299;BME280;37382;45.192;9.790;2022-12-18T01:06:45;102516.69;;;5.13;100.00
51299;BME280;37382;45.192;9.790;2022-12-18T01:09:12;102523.13;;;4.99;100.00
51299;BME280;37382;45.192;9.790;2022-12-18T01:11:40;102517.84;;;4.97;100.00
51299;BME280;37382;45.192;9.790;2022-12-18T01:14:08;102523.00;;;5.01;100.00
51299;BME280;37382;45.192;9.790;2022-12-18T01:16:37;102532.09;;;4.99;100.00
51299;BME280;37382;45.192;9.790;2022-12-18T01:19:04;102541.84;;;5.13;100.00
51299;BME280;37382;45.192;9.790;2022-12-18T01:21:32;102546.44;;;5.00;100.00
51299;BME280;37382;45.192;9.790;2022-12-18T01:24:04;102545.63;;;5.11;100.00
51299;BME280;37382;45.192;9.790;2022-12-18T01:26:31;102550.53;;;5.17;100.00
51299;BME280;37382;45.192;9.790;2022-12-18T01:28:59;102559.91;;;5.24;100.00
51299;BME280;37382;45.192;9.790;2022-12-18T01:31:31;102562.00;;;4.96;100.00
51299;BME280;37382;45.192;9.790;2022-12-18T01:34:04;102569.53;;;5.15;100.00
51299;BME280;37382;45.192;9.790;2022-12-18T01:36:34;102565.31;;;5.00;100.00
51299;BME280;37382;45.192;9.790;2022-12-18T01:39:13;102578.34;;;5.06;100.00
51299;BME280;37382;45.192;9.790;2022-12-18T01:41:41;102566.22;;;5.12;100.00
51299;BME280;37382;45.192;9.790;2022-12-18T01:44:57;102567.41;;;5.43;100.00
51299;BME280;37382;45.192;9.790;2022-12-18T01:47:48;102583.84;;;5.40;100.00
51299;BME280;37382;45.192;9.790;2022-12-18T01:50:17;102582.75;;;5.43;100.00
51299;BME280;37382;45.192;9.790;2022-12-18T01:52:49;102578.78;;;5.24;100.00
51299;BME280;37382;45.192;9.790;2022-12-18T01:55:19;102581.72;;;5.21;100.00
51299;BME280;37382;45.192;9.790;2022-12-18T01:57:49;102568.38;;;4.95;100.00
51299;BME280;37382;45.192;9.790;2022-12-18T02:00:20;102576.38;;;4.84;100.00
51299;BME280;37382;45.192;9.790;2022-12-18T02:02:48;102581.34;;;4.90;100.00
51299;BME280;37382;45.192;9.790;2022-12-18T02:05:29;102592.22;;;5.13;100.00
51299;BME280;37382;45.192;9.790;2022-12-18T02:08:13;102590.50;;;5.12;100.00
51299;BME280;37382;45.192;9.790;2022-12-18T02:10:46;102596.53;;;5.15;100.00
51299;BME280;37382;45.192;9.790;2022-12-18T02:13:53;102597.19;;;4.95;100.00
51299;BME280;37382;45.192;9.790;2022-12-18T02:16:31;102597.06;;;4.96;100.00
51299;BME280;37382;45.192;9.790;2022-12-18T02:19:06;102596.28;;;5.19;100.00
51299;BME280;37382;45.192;9.790;2022-12-18T02:21:53;102600.88;;;5.29;100.00
51299;BME280;37382;45.192;9.790;2022-12-18T02:24:29;102599.69;;;4.85;100.00
51299;BME280;37382;45.192;9.790;2022-12-18T02:27:07;102605.94;;;4.86;100.00
51299;BME280;37382;45.192;9.790;2022-12-18T02:29:48;102607.31;;;4.91;100.00
51299;BME280;37382;45.192;9.790;2022-12-18T02:32:31;102600.00;;;4.93;100.00
51299;BME280;37382;45.192;9.790;2022-12-18T02:35:02;102597.69;;;5.00;100.00
51299;BME280;37382;45.192;9.790;2022-12-18T02:37:32;102596.75;;;4.88;100.00
51299;BME280;37382;45.192;9.790;2022-12-18T02:40:04;102614.38;;;4.81;100.00
51299;BME280;37382;45.192;9.790;2022-12-18T02:42:34;102620.19;;;4.88;100.00
51299;BME280;37382;45.192;9.790;2022-12-18T02:45:05;102622.66;;;4.91;100.00
51299;BME280;37382;45.192;9.790;2022-12-18T02:47:38;102623.22;;;5.07;100.00
51299;BME280;37382;45.192;9.790;2022-12-18T02:58:08;102630.50;;;4.94;100.00
51299;BME280;37382;45.192;9.790;2022-12-18T03:03:41;102614.59;;;5.26;100.00
51299;BME280;37382;45.192;9.790;2022-12-18T03:06:14;102608.59;;;4.98;100.00
51299;BME280;37382;45.192;9.790;2022-12-18T03:08:51;102610.88;;;5.16;100.00
51299;BME280;37382;45.192;9.790;2022-12-18T03:11:24;102610.44;;;4.98;100.00
51299;BME280;37382;45.192;9.790;2022-12-18T03:14:15;102615.94;;;4.96;100.00
51299;BME280;37382;45.192;9.790;2022-12-18T03:16:48;102617.25;;;5.15;100.00
51299;BME280;37382;45.192;9.790;2022-12-18T03:19:22;102622.34;;;5.07;100.00
51299;BME280;37382;45.192;9.790;2022-12-18T03:21:56;102628.41;;;5.10;100.00
51299;BME280;37382;45.192;9.790;2022-12-18T03:24:28;102641.81;;;4.99;100.00
51299;BME280;37382;45.192;9.790;2022-12-18T03:27:00;102650.47;;;4.91;100.00
51299;BME280;37382;45.192;9.790;2022-12-18T03:29:38;102649.16;;;4.97;100.00
51299;BME280;37382;45.192;9.790;2022-12-18T03:32:16;102655.72;;;4.69;100.00
51299;BME280;37382;45.192;9.790;2022-12-18T03:34:46;102651.09;;;4.58;100.00
51299;BME280;37382;45.192;9.790;2022-12-18T03:37:18;102656.31;;;4.48;100.00
51299;BME280;37382;45.192;9.790;2022-12-18T03:39:47;102654.91;;;4.55;100.00
51299;BME280;37382;45.192;9.790;2022-12-18T03:42:32;102656.63;;;4.56;100.00
51299;BME280;37382;45.192;9.790;2022-12-18T03:48:31;102663.25;;;4.26;100.00
51299;BME280;37382;45.192;9.790;2022-12-18T03:51:24;102663.03;;;4.30;100.00
51299;BME280;37382;45.192;9.790;2022-12-18T03:54:02;102669.78;;;4.35;100.00
51299;BME280;37382;45.192;9.790;2022-12-18T03:56:40;102670.34;;;4.27;100.00
51299;BME280;37382;45.192;9.790;2022-12-18T03:59:12;102676.06;;;4.10;100.00
51299;BME280;37382;45.192;9.790;2022-12-18T04:01:46;102681.66;;;4.07;100.00
51299;BME280;37382;45.192;9.790;2022-12-18T04:04:17;102676.28;;;4.07;100.00
51299;BME280;37382;45.192;9.790;2022-12-18T04:06:47;102683.28;;;3.97;100.00
51299;BME280;37382;45.192;9.790;2022-12-18T04:09:19;102682.41;;;3.96;100.00
51299;BME280;37382;45.192;9.790;2022-12-18T04:11:48;102680.16;;;3.90;100.00
51299;BME280;37382;45.192;9.790;2022-12-18T04:14:16;102683.47;;;3.94;100.00
51299;BME280;37382;45.192;9.790;2022-12-18T04:16:47;102681.78;;;4.05;100.00
51299;BME280;37382;45.192;9.790;2022-12-18T04:19:17;102680.38;;;4.00;100.00
51299;BME280;37382;45.192;9.790;2022-12-18T04:21:47;102689.09;;;4.16;100.00
51299;BME280;37382;45.192;9.790;2022-12-18T04:24:15;102690.59;;;4.33;100.00
51299;BME280;37382;45.192;9.790;2022-12-18T04:26:52;102705.47;;;4.26;100.00
51299;BME280;37382;45.192;9.790;2022-12-18T04:29:25;102707.94;;;4.29;100.00
51299;BME280;37382;45.192;9.790;2022-12-18T04:31:53;102706.88;;;4.32;100.00
51299;BME280;37382;45.192;9.790;2022-12-18T04:34:22;102709.47;;;4.33;100.00
51299;BME280;37382;45.192;9.790;2022-12-18T04:36:52;102708.81;;;4.55;100.00
51299;BME280;37382;45.192;9.790;2022-12-18T04:39:22;102706.34;;;4.26;100.00
51299;BME280;37382;45.192;9.790;2022-12-18T04:41:51;102710.97;;;4.12;100.00
51299;BME280;37382;45.192;9.790;2022-12-18T04:44:18;102704.69;;;4.11;100.00
51299;BME280;37382;45.192;9.790;2022-12-18T04:46:46;102709.44;;;4.07;100.00
51299;BME280;37382;45.192;9.790;2022-12-18T04:49:13;102717.78;;;4.17;100.00
51299;BME280;37382;45.192;9.790;2022-12-18T04:51:41;102725.94;;;4.03;100.00
51299;BME280;37382;45.192;9.790;2022-12-18T04:54:08;102722.84;;;4.22;100.00
51299;BME280;37382;45.192;9.790;2022-12-18T04:56:36;102720.22;;;3.95;100.00
51299;BME280;37382;45.192;9.790;2022-12-18T04:59:03;102729.81;;;4.24;100.00
51299;BME280;37382;45.192;9.790;2022-12-18T05:01:31;102738.66;;;4.01;100.00
51299;BME280;37382;45.192;9.790;2022-12-18T05:04:02;102747.06;;;3.96;100.00
51299;BME280;37382;45.192;9.790;2022-12-18T05:06:29;102768.34;;;3.86;100.00
51299;BME280;37382;45.192;9.790;2022-12-18T05:08:58;102780.75;;;3.89;100.00
51299;BME280;37382;45.192;9.790;2022-12-18T05:11:25;102774.94;;;3.95;100.00
51299;BME280;37382;45.192;9.790;2022-12-18T05:13:52;102774.25;;;3.79;100.00
51299;BME280;37382;45.192;9.790;2022-12-18T05:16:20;102773.19;;;3.81;100.00
51299;BME280;37382;45.192;9.790;2022-12-18T05:18:47;102772.78;;;4.00;100.00
51299;BME280;37382;45.192;9.790;2022-12-18T05:21:16;102764.47;;;3.90;100.00
51299;BME280;37382;45.192;9.790;2022-12-18T05:23:43;102765.28;;;4.18;100.00
51299;BME280;37382;45.192;9.790;2022-12-18T05:26:15;102758.78;;;4.08;100.00
51299;BME280;37382;45.192;9.790;2022-12-18T05:28:44;102766.63;;;3.85;100.00
51299;BME280;37382;45.192;9.790;2022-12-18T05:31:12;102774.19;;;3.93;100.00
51299;BME280;37382;45.192;9.790;2022-12-18T05:33:40;102782.00;;;3.83;100.00
51299;BME280;37382;45.192;9.790;2022-12-18T05:36:09;102786.94;;;3.77;100.00
51299;BME280;37382;45.192;9.790;2022-12-18T05:38:38;102790.97;;;3.84;100.00
51299;BME280;37382;45.192;9.790;2022-12-18T05:41:07;102794.06;;;3.78;100.00
51299;BME280;37382;45.192;9.790;2022-12-18T05:43:37;102787.38;;;3.83;100.00
51299;BME280;37382;45.192;9.790;2022-12-18T05:46:12;102792.94;;;3.95;100.00
51299;BME280;37382;45.192;9.790;2022-12-18T05:48:41;102802.63;;;3.70;100.00
51299;BME280;37382;45.192;9.790;2022-12-18T05:51:14;102809.03;;;3.54;100.00
51299;BME280;37382;45.192;9.790;2022-12-18T05:53:42;102813.66;;;3.52;100.00
51299;BME280;37382;45.192;9.790;2022-12-18T05:56:16;102812.91;;;3.50;100.00
51299;BME280;37382;45.192;9.790;2022-12-18T05:58:43;102807.81;;;3.46;100.00
51299;BME280;37382;45.192;9.790;2022-12-18T06:01:15;102805.78;;;3.49;100.00
51299;BME280;37382;45.192;9.790;2022-12-18T06:03:43;102813.84;;;3.49;100.00
51299;BME280;37382;45.192;9.790;2022-12-18T06:06:22;102818.38;;;3.49;100.00
51299;BME280;37382;45.192;9.790;2022-12-18T06:08:50;102821.63;;;3.54;100.00
51299;BME280;37382;45.192;9.790;2022-12-18T06:11:23;102825.16;;;3.54;100.00
51299;BME280;37382;45.192;9.790;2022-12-18T06:13:56;102824.22;;;3.55;100.00
51299;BME280;37382;45.192;9.790;2022-12-18T06:16:26;102844.41;;;3.63;100.00
51299;BME280;37382;45.192;9.790;2022-12-18T06:18:58;102848.59;;;3.67;100.00
51299;BME280;37382;45.192;9.790;2022-12-18T06:21:26;102845.91;;;3.67;100.00
51299;BME280;37382;45.192;9.790;2022-12-18T06:23:54;102845.00;;;3.53;100.00
51299;BME280;37382;45.192;9.790;2022-12-18T06:26:22;102855.59;;;3.69;100.00
51299;BME280;37382;45.192;9.790;2022-12-18T06:28:54;102858.06;;;3.60;100.00
51299;BME280;37382;45.192;9.790;2022-12-18T06:31:22;102862.03;;;3.67;100.00
51299;BME280;37382;45.192;9.790;2022-12-18T06:33:50;102868.13;;;3.70;100.00
51299;BME280;37382;45.192;9.790;2022-12-18T06:36:17;102871.72;;;3.56;100.00
51299;BME280;37382;45.192;9.790;2022-12-18T06:38:44;102868.03;;;3.58;100.00
51299;BME280;37382;45.192;9.790;2022-12-18T06:41:14;102863.22;;;3.63;100.00
51299;BME280;37382;45.192;9.790;2022-12-18T06:43:43;102866.31;;;3.56;100.00
51299;BME280;37382;45.192;9.790;2022-12-18T06:46:11;102865.28;;;3.45;100.00
51299;BME280;37382;45.192;9.790;2022-12-18T06:48:39;102866.13;;;3.45;100.00
51299;BME280;37382;45.192;9.790;2022-12-18T06:51:07;102867.31;;;3.41;100.00
51299;BME280;37382;45.192;9.790;2022-12-18T06:53:34;102871.22;;;3.64;100.00
51299;BME280;37382;45.192;9.790;2022-12-18T06:56:04;102867.44;;;3.67;100.00
51299;BME280;37382;45.192;9.790;2022-12-18T06:58:38;102872.56;;;3.57;100.00
51299;BME280;37382;45.192;9.790;2022-12-18T07:01:10;102878.97;;;3.69;100.00
51299;BME280;37382;45.192;9.790;2022-12-18T07:03:39;102878.13;;;3.54;100.00
51299;BME280;37382;45.192;9.790;2022-12-18T07:06:19;102890.19;;;3.34;100.00
51299;BME280;37382;45.192;9.790;2022-12-18T07:08:46;102892.00;;;3.33;100.00
51299;BME280;37382;45.192;9.790;2022-12-18T07:11:15;102898.03;;;3.51;100.00
51299;BME280;37382;45.192;9.790;2022-12-18T07:13:44;102894.44;;;3.65;100.00
51299;BME280;37382;45.192;9.790;2022-12-18T07:16:17;102902.06;;;3.59;100.00
51299;BME280;37382;45.192;9.790;2022-12-18T07:18:53;102905.09;;;3.81;100.00
51299;BME280;37382;45.192;9.790;2022-12-18T07:21:23;102911.03;;;3.86;100.00
51299;BME280;37382;45.192;9.790;2022-12-18T07:23:50;102909.44;;;3.69;100.00
51299;BME280;37382;45.192;9.790;2022-12-18T07:26:21;102916.88;;;3.51;100.00
51299;BME280;37382;45.192;9.790;2022-12-18T07:28:48;102920.34;;;3.53;100.00
51299;BME280;37382;45.192;9.790;2022-12-18T07:31:21;102925.16;;;3.34;100.00
51299;BME280;37382;45.192;9.790;2022-12-18T07:33:50;102933.22;;;3.19;100.00
51299;BME280;37382;45.192;9.790;2022-12-18T07:36:18;102938.41;;;3.23;100.00
51299;BME280;37382;45.192;9.790;2022-12-18T07:38:49;102946.28;;;3.40;100.00
51299;BME280;37382;45.192;9.790;2022-12-18T07:41:17;102949.75;;;3.42;100.00
51299;BME280;37382;45.192;9.790;2022-12-18T07:43:46;102948.09;;;3.54;100.00
51299;BME280;37382;45.192;9.790;2022-12-18T07:46:15;102963.13;;;3.58;100.00
51299;BME280;37382;45.192;9.790;2022-12-18T07:48:43;102959.63;;;3.70;100.00
51299;BME280;37382;45.192;9.790;2022-12-18T07:51:16;102967.41;;;3.75;100.00
51299;BME280;37382;45.192;9.790;2022-12-18T07:53:44;102969.63;;;3.68;100.00
51299;BME280;37382;45.192;9.790;2022-12-18T07:56:12;102978.38;;;3.72;100.00
51299;BME280;37382;45.192;9.790;2022-12-18T07:58:58;102974.66;;;4.02;100.00
51299;BME280;37382;45.192;9.790;2022-12-18T08:01:29;102981.63;;;3.77;100.00
51299;BME280;37382;45.192;9.790;2022-12-18T08:03:57;102982.22;;;3.68;100.00
51299;BME280;37382;45.192;9.790;2022-12-18T08:06:25;102986.63;;;3.98;100.00
51299;BME280;37382;45.192;9.790;2022-12-18T08:08:54;102988.53;;;3.96;100.00
51299;BME280;37382;45.192;9.790;2022-12-18T08:11:23;102997.00;;;4.04;100.00
51299;BME280;37382;45.192;9.790;2022-12-18T08:13:52;103003.72;;;3.97;100.00
51299;BME280;37382;45.192;9.790;2022-12-18T08:16:21;103011.91;;;3.95;100.00
51299;BME280;37382;45.192;9.790;2022-12-18T08:18:49;103019.09;;;4.09;100.00
51299;BME280;37382;45.192;9.790;2022-12-18T08:21:28;103023.34;;;3.99;100.00
51299;BME280;37382;45.192;9.790;2022-12-18T08:24:00;103027.38;;;4.06;100.00
51299;BME280;37382;45.192;9.790;2022-12-18T08:26:30;103019.59;;;4.43;100.00
51299;BME280;37382;45.192;9.790;2022-12-18T08:28:58;103018.59;;;4.58;100.00
51299;BME280;37382;45.192;9.790;2022-12-18T08:31:28;103019.13;;;4.36;100.00
51299;BME280;37382;45.192;9.790;2022-12-18T08:33:57;103025.78;;;4.31;100.00
51299;BME280;37382;45.192;9.790;2022-12-18T08:36:24;103029.81;;;4.38;100.00
51299;BME280;37382;45.192;9.790;2022-12-18T08:38:53;103023.25;;;4.42;100.00
51299;BME280;37382;45.192;9.790;2022-12-18T08:41:21;103027.09;;;4.52;100.00
51299;BME280;37382;45.192;9.790;2022-12-18T08:43:49;103022.78;;;4.62;100.00
51299;BME280;37382;45.192;9.790;2022-12-18T08:46:37;103032.66;;;4.22;100.00
51299;BME280;37382;45.192;9.790;2022-12-18T08:49:06;103041.81;;;4.47;100.00
51299;BME280;37382;45.192;9.790;2022-12-18T08:51:34;103043.22;;;4.25;100.00
51299;BME280;37382;45.192;9.790;2022-12-18T08:54:02;103037.47;;;4.58;100.00
51299;BME280;37382;45.192;9.790;2022-12-18T08:56:30;103040.16;;;4.58;100.00
51299;BME280;37382;45.192;9.790;2022-12-18T08:58:58;103046.34;;;4.46;100.00
51299;BME280;37382;45.192;9.790;2022-12-18T09:01:25;103037.34;;;4.18;100.00
51299;BME280;37382;45.192;9.790;2022-12-18T09:03:53;103037.28;;;4.47;100.00
51299;BME280;37382;45.192;9.790;2022-12-18T09:06:22;103033.00;;;4.85;100.00
51299;BME280;37382;45.192;9.790;2022-12-18T09:08:50;103041.56;;;4.64;100.00
51299;BME280;37382;45.192;9.790;2022-12-18T09:11:26;103044.13;;;4.80;100.00
51299;BME280;37382;45.192;9.790;2022-12-18T09:13:55;103036.16;;;4.91;100.00
51299;BME280;37382;45.192;9.790;2022-12-18T09:16:24;103054.13;;;4.51;100.00
51299;BME280;37382;45.192;9.790;2022-12-18T09:18:59;103057.84;;;4.62;100.00
51299;BME280;37382;45.192;9.790;2022-12-18T09:21:29;103060.03;;;4.70;100.00
51299;BME280;37382;45.192;9.790;2022-12-18T09:24:00;103050.53;;;5.05;100.00
51299;BME280;37382;45.192;9.790;2022-12-18T09:26:28;103053.09;;;5.59;100.00
51299;BME280;37382;45.192;9.790;2022-12-18T09:28:55;103040.25;;;5.76;100.00
51299;BME280;37382;45.192;9.790;2022-12-18T09:31:24;103045.41;;;5.79;100.00
51299;BME280;37382;45.192;9.790;2022-12-18T09:33:51;103048.78;;;5.69;100.00
51299;BME280;37382;45.192;9.790;2022-12-18T09:36:19;103052.06;;;5.09;100.00
51299;BME280;37382;45.192;9.790;2022-12-18T09:38:47;103059.06;;;5.11;100.00
51299;BME280;37382;45.192;9.790;2022-12-18T09:41:33;103058.53;;;5.06;100.00
51299;BME280;37382;45.192;9.790;2022-12-18T09:46:42;103056.09;;;4.89;100.00
51299;BME280;37382;45.192;9.790;2022-12-18T09:49:15;103064.88;;;4.92;100.00
51299;BME280;37382;45.192;9.790;2022-12-18T09:51:52;103053.50;;;5.27;100.00
51299;BME280;37382;45.192;9.790;2022-12-18T09:54:30;103049.16;;;5.25;100.00
51299;BME280;37382;45.192;9.790;2022-12-18T09:57:00;103061.16;;;5.33;100.00
51299;BME280;37382;45.192;9.790;2022-12-18T09:59:35;103058.91;;;5.40;100.00
51299;BME280;37382;45.192;9.790;2022-12-18T10:02:14;103051.53;;;5.29;100.00
51299;BME280;37382;45.192;9.790;2022-12-18T10:04:42;103057.03;;;5.15;100.00
51299;BME280;37382;45.192;9.790;2022-12-18T10:07:19;103049.91;;;5.01;100.00
51299;BME280;37382;45.192;9.790;2022-12-18T10:09:57;103056.69;;;5.07;100.00
51299;BME280;37382;45.192;9.790;2022-12-18T10:12:32;103045.25;;;5.16;100.00
51299;BME280;37382;45.192;9.790;2022-12-18T10:17:55;103035.56;;;5.26;100.00
51299;BME280;37382;45.192;9.790;2022-12-18T10:20:43;103034.28;;;5.45;100.00
51299;BME280;37382;45.192;9.790;2022-12-18T10:26:12;103021.28;;;5.11;100.00
51299;BME280;37382;45.192;9.790;2022-12-18T10:28:41;103027.69;;;5.23;100.00
51299;BME280;37382;45.192;9.790;2022-12-18T10:31:36;103027.47;;;5.26;100.00
51299;BME280;37382;45.192;9.790;2022-12-18T10:34:04;103028.25;;;5.28;100.00
51299;BME280;37382;45.192;9.790;2022-12-18T10:36:31;103024.91;;;5.38;100.00
51299;BME280;37382;45.192;9.790;2022-12-18T10:39:21;103031.78;;;5.16;100.00
51299;BME280;37382;45.192;9.790;2022-12-18T10:41:49;103033.97;;;5.37;100.00
51299;BME280;37382;45.192;9.790;2022-12-18T10:44:23;103023.03;;;5.90;100.00
51299;BME280;37382;45.192;9.790;2022-12-18T10:46:55;103040.34;;;5.61;100.00
51299;BME280;37382;45.192;9.790;2022-12-18T10:49:35;103039.16;;;5.40;100.00
51299;BME280;37382;45.192;9.790;2022-12-18T10:52:13;103038.16;;;5.79;100.00
51299;BME280;37382;45.192;9.790;2022-12-18T10:57:38;103033.63;;;5.93;100.00
51299;BME280;37382;45.192;9.790;2022-12-18T11:00:21;103036.88;;;5.98;100.00
51299;BME280;37382;45.192;9.790;2022-12-18T11:02:49;103024.78;;;5.78;100.00
51299;BME280;37382;45.192;9.790;2022-12-18T11:05:33;103029.09;;;5.67;100.00
51299;BME280;37382;45.192;9.790;2022-12-18T11:08:01;103037.84;;;5.84;100.00
51299;BME280;37382;45.192;9.790;2022-12-18T11:10:31;103037.09;;;5.56;100.00
51299;BME280;37382;45.192;9.790;2022-12-18T11:13:19;103044.88;;;5.86;100.00
51299;BME280;37382;45.192;9.790;2022-12-18T11:15:47;103032.13;;;5.76;100.00
51299;BME280;37382;45.192;9.790;2022-12-18T11:21:50;103029.09;;;6.06;100.00
51299;BME280;37382;45.192;9.790;2022-12-18T11:24:38;103024.84;;;5.89;100.00
51299;BME280;37382;45.192;9.790;2022-12-18T11:27:17;103027.59;;;6.02;100.00
51299;BME280;37382;45.192;9.790;2022-12-18T11:29:45;103022.94;;;5.91;100.00
51299;BME280;37382;45.192;9.790;2022-12-18T11:38:12;103040.66;;;5.44;100.00
51299;BME280;37382;45.192;9.790;2022-12-18T11:40:47;103039.34;;;5.49;100.00
51299;BME280;37382;45.192;9.790;2022-12-18T11:43:25;103038.72;;;5.59;100.00
51299;BME280;37382;45.192;9.790;2022-12-18T11:45:56;103033.53;;;5.56;100.00
51299;BME280;37382;45.192;9.790;2022-12-18T11:48:49;103027.47;;;6.03;100.00
51299;BME280;37382;45.192;9.790;2022-12-18T11:51:27;103021.00;;;5.67;100.00
51299;BME280;37382;45.192;9.790;2022-12-18T11:54:00;103022.06;;;5.78;100.00
51299;BME280;37382;45.192;9.790;2022-12-18T11:56:48;103032.56;;;5.44;100.00
51299;BME280;37382;45.192;9.790;2022-12-18T12:00:02;103025.50;;;6.05;100.00
51299;BME280;37382;45.192;9.790;2022-12-18T12:02:49;103035.25;;;5.57;100.00
51299;BME280;37382;45.192;9.790;2022-12-18T12:12:09;103026.19;;;5.45;100.00
51299;BME280;37382;45.192;9.790;2022-12-18T12:14:51;103025.19;;;5.59;100.00
51299;BME280;37382;45.192;9.790;2022-12-18T12:25:20;103004.22;;;6.14;100.00
51299;BME280;37382;45.192;9.790;2022-12-18T12:33:34;103006.94;;;5.88;100.00
51299;BME280;37382;45.192;9.790;2022-12-18T12:39:02;103001.97;;;6.08;100.00
51299;BME280;37382;45.192;9.790;2022-12-18T12:41:33;102992.75;;;6.10;100.00
51299;BME280;37382;45.192;9.790;2022-12-18T12:44:25;103001.53;;;5.88;100.00
51299;BME280;37382;45.192;9.790;2022-12-18T12:46:58;103002.78;;;5.95;100.00
51299;BME280;37382;45.192;9.790;2022-12-18T12:49:31;102998.75;;;5.51;100.00
51299;BME280;37382;45.192;9.790;2022-12-18T12:52:30;102995.91;;;5.91;100.00
51299;BME280;37382;45.192;9.790;2022-12-18T12:54:59;102988.78;;;5.90;100.00
51299;BME280;37382;45.192;9.790;2022-12-18T12:58:08;102988.69;;;6.29;100.00
51299;BME280;37382;45.192;9.790;2022-12-18T13:00:46;102981.19;;;6.08;100.00
51299;BME280;37382;45.192;9.790;2022-12-18T13:03:35;102992.69;;;5.73;100.00
51299;BME280;37382;45.192;9.790;2022-12-18T13:09:13;102993.13;;;5.54;100.00
51299;BME280;37382;45.192;9.790;2022-12-18T13:11:44;102994.34;;;5.37;100.00
51299;BME280;37382;45.192;9.790;2022-12-18T13:14:37;103003.53;;;5.34;100.00
51299;BME280;37382;45.192;9.790;2022-12-18T13:19:55;102987.75;;;5.41;100.00
51299;BME280;37382;45.192;9.790;2022-12-18T13:25:35;102997.47;;;5.69;100.00
51299;BME280;37382;45.192;9.790;2022-12-18T13:28:14;102991.91;;;5.84;100.00
51299;BME280;37382;45.192;9.790;2022-12-18T13:30:52;102993.63;;;6.11;100.00
51299;BME280;37382;45.192;9.790;2022-12-18T13:36:26;102989.06;;;5.23;100.00
51299;BME280;37382;45.192;9.790;2022-12-18T13:41:43;102991.44;;;5.27;100.00
51299;BME280;37382;45.192;9.790;2022-12-18T13:46:51;102989.38;;;5.18;100.00
51299;BME280;37382;45.192;9.790;2022-12-18T13:49:26;102982.13;;;5.06;100.00
51299;BME280;37382;45.192;9.790;2022-12-18T13:51:57;102980.19;;;5.46;100.00
51299;BME280;37382;45.192;9.790;2022-12-18T13:54:40;102980.78;;;5.88;100.00
51299;BME280;37382;45.192;9.790;2022-12-18T13:57:28;102983.94;;;5.82;100.00
51299;BME280;37382;45.192;9.790;2022-12-18T14:02:51;102986.66;;;5.05;100.00
51299;BME280;37382;45.192;9.790;2022-12-18T14:05:30;102982.09;;;4.93;100.00
51299;BME280;37382;45.192;9.790;2022-12-18T14:08:08;102984.28;;;5.01;100.00
51299;BME280;37382;45.192;9.790;2022-12-18T14:10:45;102984.47;;;4.85;100.00
51299;BME280;37382;45.192;9.790;2022-12-18T14:13:28;102975.22;;;5.14;100.00
51299;BME280;37382;45.192;9.790;2022-12-18T14:15:56;102979.13;;;5.36;100.00
51299;BME280;37382;45.192;9.790;2022-12-18T14:18:48;102977.78;;;5.67;100.00
51299;BME280;37382;45.192;9.790;2022-12-18T14:21:22;102972.22;;;5.32;100.00
51299;BME280;37382;45.192;9.790;2022-12-18T14:24:04;102978.44;;;5.07;100.00
51299;BME280;37382;45.192;9.790;2022-12-18T14:26:32;102976.66;;;5.33;100.00
51299;BME280;37382;45.192;9.790;2022-12-18T14:29:18;102984.84;;;5.06;100.00
51299;BME280;37382;45.192;9.790;2022-12-18T14:32:11;102982.66;;;4.98;100.00
51299;BME280;37382;45.192;9.790;2022-12-18T14:37:15;102985.69;;;5.19;100.00
51299;BME280;37382;45.192;9.790;2022-12-18T14:39:54;102989.22;;;4.94;100.00
51299;BME280;37382;45.192;9.790;2022-12-18T14:42:22;102990.34;;;5.17;100.00